Warco, Kentucky
Current Conditions -  °F | °C
As of 8:35 PM on Tuesday 27 Jan 2015 (Local Time) from KPBX Reporting Station
Clear Clear  
Wind Chill: 16°   Ceiling: Unl
Heat Index: 23°   Visibility: 10mi
Dew Point: 14°   Wind: 6mph
Humidity: 66%   Direction: 340°NNW
Pressure: 30.11"   Gusts: NA
Location:  37.5428°N, 82.8043°W
Report Text: KPBX 280135Z AUTO 34005KT 10SM CLR M05/M10 A3011 RMK AO2 T10481102
Loading
Personal Weather Stations






























Interactive Weather Map New forecast layout! Learn more

10-Day Weather Forecast

Advertisements
Track Severe Weather on mobile